sensor_id;sensor_type;location;lat;lon;timestamp;P1;durP1;ratioP1;P2;durP2;ratioP2
55216;SDS011;41086;46.736;15.666;2024-03-23T00:51:25;11.07;;;6.20;;
55216;SDS011;41086;46.736;15.666;2024-03-23T00:56:17;12.57;;;6.88;;
55216;SDS011;41086;46.736;15.666;2024-03-23T00:58:43;12.93;;;6.30;;
55216;SDS011;41086;46.736;15.666;2024-03-23T01:01:09;12.88;;;6.30;;
55216;SDS011;41086;46.736;15.666;2024-03-23T01:03:35;9.00;;;5.15;;
55216;SDS011;41086;46.736;15.666;2024-03-23T01:06:02;12.05;;;5.45;;
55216;SDS011;41086;46.736;15.666;2024-03-23T01:08:31;10.38;;;6.50;;
55216;SDS011;41086;46.736;15.666;2024-03-23T01:10:58;9.20;;;5.65;;
55216;SDS011;41086;46.736;15.666;2024-03-23T01:13:24;12.15;;;6.95;;
55216;SDS011;41086;46.736;15.666;2024-03-23T01:15:51;9.68;;;6.00;;
55216;SDS011;41086;46.736;15.666;2024-03-23T01:18:17;11.82;;;6.60;;
55216;SDS011;41086;46.736;15.666;2024-03-23T01:20:43;12.82;;;5.85;;
55216;SDS011;41086;46.736;15.666;2024-03-23T01:23:10;14.40;;;6.90;;
55216;SDS011;41086;46.736;15.666;2024-03-23T01:25:36;12.45;;;6.20;;
55216;SDS011;41086;46.736;15.666;2024-03-23T01:28:02;10.27;;;5.53;;
55216;SDS011;41086;46.736;15.666;2024-03-23T01:30:28;9.77;;;6.38;;
55216;SDS011;41086;46.736;15.666;2024-03-23T01:32:53;14.00;;;6.07;;
55216;SDS011;41086;46.736;15.666;2024-03-23T01:35:19;11.77;;;6.45;;
55216;SDS011;41086;46.736;15.666;2024-03-23T01:37:45;15.27;;;6.18;;
55216;SDS011;41086;46.736;15.666;2024-03-23T01:40:11;9.55;;;6.10;;
55216;SDS011;41086;46.736;15.666;2024-03-23T01:42:39;9.77;;;5.47;;
55216;SDS011;41086;46.736;15.666;2024-03-23T01:45:08;13.10;;;6.47;;
55216;SDS011;41086;46.736;15.666;2024-03-23T01:47:37;8.77;;;5.82;;
55216;SDS011;41086;46.736;15.666;2024-03-23T01:50:03;9.10;;;5.75;;
55216;SDS011;41086;46.736;15.666;2024-03-23T01:52:30;9.95;;;5.47;;
55216;SDS011;41086;46.736;15.666;2024-03-23T01:54:56;9.98;;;6.25;;
55216;SDS011;41086;46.736;15.666;2024-03-23T01:57:21;10.57;;;6.53;;
55216;SDS011;41086;46.736;15.666;2024-03-23T01:59:47;12.35;;;6.97;;
55216;SDS011;41086;46.736;15.666;2024-03-23T02:02:22;10.52;;;6.85;;
55216;SDS011;41086;46.736;15.666;2024-03-23T02:04:47;12.95;;;6.47;;
55216;SDS011;41086;46.736;15.666;2024-03-23T02:07:13;9.38;;;5.55;;
55216;SDS011;41086;46.736;15.666;2024-03-23T02:09:39;11.70;;;5.15;;
55216;SDS011;41086;46.736;15.666;2024-03-23T02:12:05;9.00;;;5.43;;
55216;SDS011;41086;46.736;15.666;2024-03-23T02:14:31;8.10;;;5.32;;
55216;SDS011;41086;46.736;15.666;2024-03-23T02:16:57;11.25;;;5.60;;
55216;SDS011;41086;46.736;15.666;2024-03-23T02:19:24;10.50;;;5.65;;
55216;SDS011;41086;46.736;15.666;2024-03-23T02:21:49;10.80;;;6.47;;
55216;SDS011;41086;46.736;15.666;2024-03-23T02:24:15;11.93;;;7.18;;
55216;SDS011;41086;46.736;15.666;2024-03-23T02:26:41;10.63;;;7.45;;
55216;SDS011;41086;46.736;15.666;2024-03-23T02:29:07;11.05;;;6.85;;
55216;SDS011;41086;46.736;15.666;2024-03-23T02:34:00;11.48;;;6.03;;
55216;SDS011;41086;46.736;15.666;2024-03-23T02:36:26;14.45;;;6.32;;
55216;SDS011;41086;46.736;15.666;2024-03-23T02:38:52;10.38;;;6.35;;
55216;SDS011;41086;46.736;15.666;2024-03-23T02:41:17;10.85;;;6.63;;
55216;SDS011;41086;46.736;15.666;2024-03-23T02:43:49;10.75;;;5.15;;
55216;SDS011;41086;46.736;15.666;2024-03-23T02:46:15;10.50;;;6.65;;
55216;SDS011;41086;46.736;15.666;2024-03-23T02:48:41;10.23;;;6.82;;
55216;SDS011;41086;46.736;15.666;2024-03-23T02:51:07;10.15;;;6.68;;
55216;SDS011;41086;46.736;15.666;2024-03-23T02:53:33;11.20;;;6.35;;
55216;SDS011;41086;46.736;15.666;2024-03-23T02:55:59;14.80;;;6.18;;
55216;SDS011;41086;46.736;15.666;2024-03-23T02:58:24;9.52;;;6.32;;
55216;SDS011;41086;46.736;15.666;2024-03-23T03:00:50;11.50;;;7.00;;
55216;SDS011;41086;46.736;15.666;2024-03-23T03:03:16;10.63;;;6.15;;
55216;SDS011;41086;46.736;15.666;2024-03-23T03:05:42;10.82;;;6.00;;
55216;SDS011;41086;46.736;15.666;2024-03-23T03:08:08;10.43;;;5.78;;
55216;SDS011;41086;46.736;15.666;2024-03-23T03:10:34;8.57;;;5.55;;
55216;SDS011;41086;46.736;15.666;2024-03-23T03:13:01;14.40;;;6.70;;
55216;SDS011;41086;46.736;15.666;2024-03-23T03:15:28;12.70;;;6.47;;
55216;SDS011;41086;46.736;15.666;2024-03-23T03:17:54;10.55;;;6.32;;
55216;SDS011;41086;46.736;15.666;2024-03-23T03:20:20;10.30;;;5.75;;
55216;SDS011;41086;46.736;15.666;2024-03-23T03:25:13;14.15;;;6.85;;
55216;SDS011;41086;46.736;15.666;2024-03-23T03:27:39;10.38;;;6.80;;
55216;SDS011;41086;46.736;15.666;2024-03-23T03:30:05;8.75;;;5.40;;
55216;SDS011;41086;46.736;15.666;2024-03-23T03:32:32;8.07;;;5.45;;
55216;SDS011;41086;46.736;15.666;2024-03-23T03:34:58;7.85;;;5.40;;
55216;SDS011;41086;46.736;15.666;2024-03-23T03:37:24;8.65;;;5.28;;
55216;SDS011;41086;46.736;15.666;2024-03-23T03:39:50;13.40;;;6.07;;
55216;SDS011;41086;46.736;15.666;2024-03-23T03:42:16;10.98;;;6.40;;
55216;SDS011;41086;46.736;15.666;2024-03-23T03:44:42;14.52;;;6.15;;
55216;SDS011;41086;46.736;15.666;2024-03-23T03:47:08;11.98;;;7.50;;
55216;SDS011;41086;46.736;15.666;2024-03-23T03:49:33;10.15;;;6.35;;
55216;SDS011;41086;46.736;15.666;2024-03-23T03:51:59;9.10;;;5.72;;
55216;SDS011;41086;46.736;15.666;2024-03-23T03:54:26;10.88;;;6.88;;
55216;SDS011;41086;46.736;15.666;2024-03-23T03:56:52;13.23;;;7.57;;
55216;SDS011;41086;46.736;15.666;2024-03-23T03:59:18;12.00;;;6.95;;
55216;SDS011;41086;46.736;15.666;2024-03-23T04:04:11;9.90;;;6.25;;
55216;SDS011;41086;46.736;15.666;2024-03-23T04:06:37;9.75;;;6.55;;
55216;SDS011;41086;46.736;15.666;2024-03-23T04:09:03;10.20;;;6.03;;
55216;SDS011;41086;46.736;15.666;2024-03-23T04:11:29;10.55;;;6.50;;
55216;SDS011;41086;46.736;15.666;2024-03-23T04:13:54;14.13;;;7.28;;
55216;SDS011;41086;46.736;15.666;2024-03-23T04:16:33;14.07;;;7.47;;
55216;SDS011;41086;46.736;15.666;2024-03-23T04:19:00;19.60;;;6.82;;
55216;SDS011;41086;46.736;15.666;2024-03-23T04:21:26;15.55;;;8.30;;
55216;SDS011;41086;46.736;15.666;2024-03-23T04:23:52;16.08;;;7.82;;
55216;SDS011;41086;46.736;15.666;2024-03-23T04:26:18;18.08;;;10.23;;
55216;SDS011;41086;46.736;15.666;2024-03-23T04:28:44;19.83;;;9.15;;
55216;SDS011;41086;46.736;15.666;2024-03-23T04:31:10;25.92;;;9.35;;
55216;SDS011;41086;46.736;15.666;2024-03-23T04:33:35;18.27;;;9.32;;
55216;SDS011;41086;46.736;15.666;2024-03-23T04:36:02;18.48;;;8.85;;
55216;SDS011;41086;46.736;15.666;2024-03-23T04:38:28;19.10;;;7.78;;
55216;SDS011;41086;46.736;15.666;2024-03-23T04:40:58;11.98;;;6.88;;
55216;SDS011;41086;46.736;15.666;2024-03-23T04:43:25;12.88;;;7.15;;
55216;SDS011;41086;46.736;15.666;2024-03-23T04:45:52;11.73;;;6.78;;
55216;SDS011;41086;46.736;15.666;2024-03-23T04:48:21;12.60;;;7.57;;
55216;SDS011;41086;46.736;15.666;2024-03-23T04:50:48;10.98;;;6.80;;
55216;SDS011;41086;46.736;15.666;2024-03-23T04:53:20;17.98;;;8.25;;
55216;SDS011;41086;46.736;15.666;2024-03-23T04:55:45;11.77;;;7.70;;
55216;SDS011;41086;46.736;15.666;2024-03-23T04:58:11;18.77;;;8.15;;
55216;SDS011;41086;46.736;15.666;2024-03-23T05:00:37;11.10;;;7.18;;
55216;SDS011;41086;46.736;15.666;2024-03-23T05:03:03;12.07;;;8.57;;
55216;SDS011;41086;46.736;15.666;2024-03-23T05:05:30;9.85;;;6.65;;
55216;SDS011;41086;46.736;15.666;2024-03-23T05:07:56;15.35;;;7.70;;
55216;SDS011;41086;46.736;15.666;2024-03-23T05:10:21;18.80;;;7.47;;
55216;SDS011;41086;46.736;15.666;2024-03-23T05:12:47;13.20;;;7.85;;
55216;SDS011;41086;46.736;15.666;2024-03-23T05:15:13;13.93;;;7.45;;
55216;SDS011;41086;46.736;15.666;2024-03-23T05:17:39;15.18;;;7.93;;
55216;SDS011;41086;46.736;15.666;2024-03-23T05:20:05;16.52;;;8.02;;
55216;SDS011;41086;46.736;15.666;2024-03-23T05:22:38;16.67;;;8.95;;
55216;SDS011;41086;46.736;15.666;2024-03-23T05:25:05;10.32;;;7.25;;
55216;SDS011;41086;46.736;15.666;2024-03-23T05:27:31;11.60;;;7.28;;
55216;SDS011;41086;46.736;15.666;2024-03-23T05:29:58;11.25;;;7.60;;
55216;SDS011;41086;46.736;15.666;2024-03-23T05:32:24;11.57;;;6.70;;
55216;SDS011;41086;46.736;15.666;2024-03-23T05:34:50;10.70;;;6.97;;
55216;SDS011;41086;46.736;15.666;2024-03-23T05:37:21;10.27;;;6.20;;
55216;SDS011;41086;46.736;15.666;2024-03-23T05:39:48;15.10;;;7.43;;
55216;SDS011;41086;46.736;15.666;2024-03-23T05:42:18;16.40;;;8.32;;
55216;SDS011;41086;46.736;15.666;2024-03-23T05:44:44;14.55;;;7.63;;
55216;SDS011;41086;46.736;15.666;2024-03-23T05:47:10;15.50;;;9.13;;
55216;SDS011;41086;46.736;15.666;2024-03-23T05:49:40;12.23;;;7.78;;
55216;SDS011;41086;46.736;15.666;2024-03-23T05:52:09;12.70;;;7.43;;
55216;SDS011;41086;46.736;15.666;2024-03-23T05:54:38;11.90;;;7.07;;
55216;SDS011;41086;46.736;15.666;2024-03-23T05:57:04;18.75;;;7.75;;
55216;SDS011;41086;46.736;15.666;2024-03-23T05:59:29;15.13;;;8.35;;
55216;SDS011;41086;46.736;15.666;2024-03-23T06:01:56;11.18;;;6.72;;
55216;SDS011;41086;46.736;15.666;2024-03-23T06:04:23;10.88;;;7.60;;
55216;SDS011;41086;46.736;15.666;2024-03-23T06:06:48;28.95;;;8.95;;
55216;SDS011;41086;46.736;15.666;2024-03-23T06:09:14;15.55;;;9.18;;
55216;SDS011;41086;46.736;15.666;2024-03-23T06:11:40;11.32;;;8.43;;
55216;SDS011;41086;46.736;15.666;2024-03-23T06:14:06;17.10;;;9.77;;
55216;SDS011;41086;46.736;15.666;2024-03-23T06:16:32;18.63;;;9.13;;
55216;SDS011;41086;46.736;15.666;2024-03-23T06:18:57;13.13;;;8.80;;
55216;SDS011;41086;46.736;15.666;2024-03-23T06:21:24;15.80;;;8.60;;
55216;SDS011;41086;46.736;15.666;2024-03-23T06:23:53;11.73;;;8.27;;
55216;SDS011;41086;46.736;15.666;2024-03-23T06:26:19;13.43;;;8.10;;
55216;SDS011;41086;46.736;15.666;2024-03-23T06:28:45;18.17;;;9.18;;
55216;SDS011;41086;46.736;15.666;2024-03-23T06:31:14;17.88;;;7.95;;
55216;SDS011;41086;46.736;15.666;2024-03-23T06:33:40;17.13;;;7.60;;
55216;SDS011;41086;46.736;15.666;2024-03-23T06:36:10;13.73;;;8.55;;
55216;SDS011;41086;46.736;15.666;2024-03-23T06:38:36;16.08;;;8.18;;
55216;SDS011;41086;46.736;15.666;2024-03-23T06:41:03;14.88;;;8.27;;
55216;SDS011;41086;46.736;15.666;2024-03-23T06:43:30;19.48;;;7.45;;
55216;SDS011;41086;46.736;15.666;2024-03-23T06:45:56;14.88;;;8.35;;
55216;SDS011;41086;46.736;15.666;2024-03-23T06:48:23;19.10;;;8.40;;
55216;SDS011;41086;46.736;15.666;2024-03-23T06:50:49;12.10;;;7.87;;
55216;SDS011;41086;46.736;15.666;2024-03-23T06:53:15;13.27;;;7.55;;
55216;SDS011;41086;46.736;15.666;2024-03-23T06:55:41;17.27;;;8.10;;
55216;SDS011;41086;46.736;15.666;2024-03-23T06:58:07;13.15;;;7.28;;
55216;SDS011;41086;46.736;15.666;2024-03-23T07:00:33;10.93;;;8.02;;
55216;SDS011;41086;46.736;15.666;2024-03-23T07:02:59;15.95;;;7.95;;
55216;SDS011;41086;46.736;15.666;2024-03-23T07:05:25;13.95;;;7.53;;
55216;SDS011;41086;46.736;15.666;2024-03-23T07:07:51;16.60;;;7.57;;
55216;SDS011;41086;46.736;15.666;2024-03-23T07:10:17;12.60;;;7.97;;
55216;SDS011;41086;46.736;15.666;2024-03-23T07:12:43;16.65;;;8.82;;
55216;SDS011;41086;46.736;15.666;2024-03-23T07:15:09;11.60;;;8.60;;
55216;SDS011;41086;46.736;15.666;2024-03-23T07:17:35;16.73;;;8.57;;
55216;SDS011;41086;46.736;15.666;2024-03-23T07:20:01;12.00;;;7.85;;
55216;SDS011;41086;46.736;15.666;2024-03-23T07:22:31;13.00;;;8.88;;
55216;SDS011;41086;46.736;15.666;2024-03-23T07:25:00;16.80;;;9.38;;
55216;SDS011;41086;46.736;15.666;2024-03-23T07:27:26;15.95;;;9.10;;
55216;SDS011;41086;46.736;15.666;2024-03-23T07:29:52;13.02;;;7.63;;
55216;SDS011;41086;46.736;15.666;2024-03-23T07:32:18;15.30;;;8.05;;
55216;SDS011;41086;46.736;15.666;2024-03-23T07:34:44;15.10;;;8.02;;
55216;SDS011;41086;46.736;15.666;2024-03-23T07:37:12;12.32;;;8.93;;
55216;SDS011;41086;46.736;15.666;2024-03-23T07:39:39;12.68;;;8.23;;
55216;SDS011;41086;46.736;15.666;2024-03-23T07:42:05;9.80;;;7.05;;
55216;SDS011;41086;46.736;15.666;2024-03-23T07:44:31;13.80;;;8.30;;
55216;SDS011;41086;46.736;15.666;2024-03-23T07:46:58;13.13;;;7.20;;
55216;SDS011;41086;46.736;15.666;2024-03-23T07:49:26;11.25;;;6.72;;
55216;SDS011;41086;46.736;15.666;2024-03-23T07:51:52;13.38;;;8.57;;
55216;SDS011;41086;46.736;15.666;2024-03-23T07:54:18;12.05;;;7.20;;
55216;SDS011;41086;46.736;15.666;2024-03-23T07:56:44;16.42;;;7.10;;
55216;SDS011;41086;46.736;15.666;2024-03-23T07:59:10;27.38;;;14.27;;
55216;SDS011;41086;46.736;15.666;2024-03-23T08:01:36;11.13;;;7.45;;
55216;SDS011;41086;46.736;15.666;2024-03-23T08:04:02;13.75;;;9.45;;
55216;SDS011;41086;46.736;15.666;2024-03-23T08:06:28;11.60;;;8.02;;
55216;SDS011;41086;46.736;15.666;2024-03-23T08:08:55;13.25;;;8.85;;
55216;SDS011;41086;46.736;15.666;2024-03-23T08:11:31;14.73;;;9.32;;
55216;SDS011;41086;46.736;15.666;2024-03-23T08:14:00;13.15;;;9.35;;
55216;SDS011;41086;46.736;15.666;2024-03-23T08:16:27;13.98;;;9.00;;
55216;SDS011;41086;46.736;15.666;2024-03-23T08:18:54;14.90;;;9.57;;
55216;SDS011;41086;46.736;15.666;2024-03-23T08:21:23;25.38;;;9.70;;
55216;SDS011;41086;46.736;15.666;2024-03-23T08:23:50;12.77;;;9.07;;
55216;SDS011;41086;46.736;15.666;2024-03-23T08:26:16;20.52;;;10.27;;
55216;SDS011;41086;46.736;15.666;2024-03-23T08:28:45;15.43;;;10.32;;
55216;SDS011;41086;46.736;15.666;2024-03-23T08:31:12;15.02;;;9.82;;
55216;SDS011;41086;46.736;15.666;2024-03-23T08:33:38;12.85;;;9.38;;
55216;SDS011;41086;46.736;15.666;2024-03-23T08:36:06;15.00;;;8.80;;
55216;SDS011;41086;46.736;15.666;2024-03-23T08:38:33;15.65;;;8.40;;
55216;SDS011;41086;46.736;15.666;2024-03-23T08:41:03;16.40;;;9.73;;
55216;SDS011;41086;46.736;15.666;2024-03-23T08:43:31;17.15;;;9.68;;
55216;SDS011;41086;46.736;15.666;2024-03-23T08:46:15;16.20;;;8.65;;
55216;SDS011;41086;46.736;15.666;2024-03-23T08:48:42;22.15;;;8.80;;
55216;SDS011;41086;46.736;15.666;2024-03-23T08:51:15;12.27;;;7.63;;
55216;SDS011;41086;46.736;15.666;2024-03-23T08:53:42;14.82;;;8.82;;
55216;SDS011;41086;46.736;15.666;2024-03-23T08:56:09;13.23;;;9.10;;
55216;SDS011;41086;46.736;15.666;2024-03-23T08:58:35;14.25;;;7.88;;
55216;SDS011;41086;46.736;15.666;2024-03-23T09:01:03;14.55;;;8.68;;
55216;SDS011;41086;46.736;15.666;2024-03-23T09:03:30;10.55;;;7.32;;
55216;SDS011;41086;46.736;15.666;2024-03-23T09:05:56;13.67;;;8.23;;
55216;SDS011;41086;46.736;15.666;2024-03-23T09:08:24;13.73;;;8.40;;
55216;SDS011;41086;46.736;15.666;2024-03-23T09:10:50;12.85;;;8.10;;
55216;SDS011;41086;46.736;15.666;2024-03-23T09:13:15;12.77;;;8.80;;
55216;SDS011;41086;46.736;15.666;2024-03-23T09:15:51;23.10;;;7.93;;
55216;SDS011;41086;46.736;15.666;2024-03-23T09:18:21;18.10;;;9.13;;
55216;SDS011;41086;46.736;15.666;2024-03-23T09:20:47;14.77;;;8.45;;
55216;SDS011;41086;46.736;15.666;2024-03-23T09:23:13;11.55;;;8.52;;
55216;SDS011;41086;46.736;15.666;2024-03-23T09:25:39;11.38;;;6.78;;
55216;SDS011;41086;46.736;15.666;2024-03-23T09:28:06;12.95;;;8.35;;
55216;SDS011;41086;46.736;15.666;2024-03-23T09:30:34;11.68;;;7.32;;
55216;SDS011;41086;46.736;15.666;2024-03-23T09:33:00;13.32;;;6.70;;
55216;SDS011;41086;46.736;15.666;2024-03-23T09:35:27;8.95;;;6.10;;
55216;SDS011;41086;46.736;15.666;2024-03-23T09:37:52;11.95;;;6.65;;
55216;SDS011;41086;46.736;15.666;2024-03-23T09:40:18;12.15;;;6.32;;
55216;SDS011;41086;46.736;15.666;2024-03-23T09:45:19;20.25;;;14.18;;
55216;SDS011;41086;46.736;15.666;2024-03-23T09:47:47;22.42;;;14.02;;
55216;SDS011;41086;46.736;15.666;2024-03-23T09:50:13;15.00;;;7.82;;
55216;SDS011;41086;46.736;15.666;2024-03-23T09:52:40;10.80;;;7.47;;
55216;SDS011;41086;46.736;15.666;2024-03-23T09:55:08;12.30;;;7.20;;
55216;SDS011;41086;46.736;15.666;2024-03-23T09:57:34;11.63;;;7.25;;
55216;SDS011;41086;46.736;15.666;2024-03-23T10:00:00;14.88;;;8.02;;
55216;SDS011;41086;46.736;15.666;2024-03-23T10:02:26;10.07;;;7.38;;
55216;SDS011;41086;46.736;15.666;2024-03-23T10:04:54;10.10;;;6.50;;
55216;SDS011;41086;46.736;15.666;2024-03-23T10:07:20;13.95;;;7.32;;
55216;SDS011;41086;46.736;15.666;2024-03-23T10:09:47;9.18;;;5.18;;
55216;SDS011;41086;46.736;15.666;2024-03-23T10:12:14;23.88;;;17.05;;
55216;SDS011;41086;46.736;15.666;2024-03-23T10:14:41;8.43;;;5.00;;
55216;SDS011;41086;46.736;15.666;2024-03-23T10:17:20;7.43;;;4.88;;
55216;SDS011;41086;46.736;15.666;2024-03-23T10:19:50;9.38;;;5.85;;
55216;SDS011;41086;46.736;15.666;2024-03-23T10:22:18;7.03;;;5.28;;
55216;SDS011;41086;46.736;15.666;2024-03-23T10:24:45;10.15;;;4.65;;
55216;SDS011;41086;46.736;15.666;2024-03-23T10:27:21;9.15;;;4.47;;
55216;SDS011;41086;46.736;15.666;2024-03-23T10:29:47;7.65;;;4.88;;
55216;SDS011;41086;46.736;15.666;2024-03-23T10:32:15;7.65;;;4.68;;
55216;SDS011;41086;46.736;15.666;2024-03-23T10:34:42;6.95;;;4.85;;
55216;SDS011;41086;46.736;15.666;2024-03-23T10:37:09;8.68;;;4.88;;
55216;SDS011;41086;46.736;15.666;2024-03-23T10:39:37;10.38;;;4.88;;
55216;SDS011;41086;46.736;15.666;2024-03-23T10:42:05;22.85;;;15.45;;
55216;SDS011;41086;46.736;15.666;2024-03-23T10:44:33;6.78;;;4.45;;
55216;SDS011;41086;46.736;15.666;2024-03-23T10:49:27;7.45;;;5.53;;
55216;SDS011;41086;46.736;15.666;2024-03-23T10:51:56;8.57;;;5.35;;
55216;SDS011;41086;46.736;15.666;2024-03-23T10:54:24;9.00;;;5.35;;
55216;SDS011;41086;46.736;15.666;2024-03-23T10:56:52;7.70;;;5.22;;
55216;SDS011;41086;46.736;15.666;2024-03-23T10:59:27;10.68;;;5.10;;
55216;SDS011;41086;46.736;15.666;2024-03-23T11:01:56;8.85;;;5.18;;
55216;SDS011;41086;46.736;15.666;2024-03-23T11:04:38;7.82;;;5.10;;
55216;SDS011;41086;46.736;15.666;2024-03-23T11:07:46;7.45;;;4.90;;
55216;SDS011;41086;46.736;15.666;2024-03-23T11:09:53;5.07;;;3.75;;
55216;SDS011;41086;46.736;15.666;2024-03-23T11:14:55;4.82;;;3.47;;
55216;SDS011;41086;46.736;15.666;2024-03-23T11:17:28;5.78;;;4.28;;
55216;SDS011;41086;46.736;15.666;2024-03-23T11:19:55;4.72;;;3.15;;
55216;SDS011;41086;46.736;15.666;2024-03-23T11:27:47;6.38;;;3.20;;
55216;SDS011;41086;46.736;15.666;2024-03-23T11:30:24;13.45;;;7.00;;
55216;SDS011;41086;46.736;15.666;2024-03-23T11:32:52;12.13;;;3.80;;
55216;SDS011;41086;46.736;15.666;2024-03-23T11:35:26;7.57;;;3.60;;
55216;SDS011;41086;46.736;15.666;2024-03-23T11:40:36;5.47;;;3.22;;
55216;SDS011;41086;46.736;15.666;2024-03-23T11:43:09;8.20;;;3.20;;
55216;SDS011;41086;46.736;15.666;2024-03-23T11:45:39;4.68;;;3.00;;
55216;SDS011;41086;46.736;15.666;2024-03-23T11:48:08;6.53;;;3.10;;
55216;SDS011;41086;46.736;15.666;2024-03-23T11:50:36;6.28;;;3.15;;
55216;SDS011;41086;46.736;15.666;2024-03-23T11:53:06;5.72;;;2.90;;
55216;SDS011;41086;46.736;15.666;2024-03-23T11:55:47;6.45;;;3.42;;
55216;SDS011;41086;46.736;15.666;2024-03-23T11:58:15;5.85;;;2.78;;
55216;SDS011;41086;46.736;15.666;2024-03-23T12:00:43;7.28;;;2.97;;
55216;SDS011;41086;46.736;15.666;2024-03-23T12:03:18;6.22;;;2.92;;
55216;SDS011;41086;46.736;15.666;2024-03-23T12:05:51;5.18;;;3.15;;
55216;SDS011;41086;46.736;15.666;2024-03-23T12:08:30;12.93;;;3.08;;
55216;SDS011;41086;46.736;15.666;2024-03-23T12:11:08;6.20;;;3.03;;
55216;SDS011;41086;46.736;15.666;2024-03-23T12:13:36;7.35;;;3.30;;
55216;SDS011;41086;46.736;15.666;2024-03-23T12:16:09;4.18;;;3.13;;
55216;SDS011;41086;46.736;15.666;2024-03-23T12:18:39;5.18;;;2.83;;
55216;SDS011;41086;46.736;15.666;2024-03-23T12:21:07;5.88;;;3.25;;
55216;SDS011;41086;46.736;15.666;2024-03-23T12:23:34;8.85;;;3.70;;
55216;SDS011;41086;46.736;15.666;2024-03-23T12:26:00;7.95;;;3.17;;
55216;SDS011;41086;46.736;15.666;2024-03-23T12:28:26;4.45;;;2.67;;
55216;SDS011;41086;46.736;15.666;2024-03-23T12:30:53;7.95;;;2.55;;
55216;SDS011;41086;46.736;15.666;2024-03-23T12:33:19;5.32;;;2.97;;
55216;SDS011;41086;46.736;15.666;2024-03-23T12:35:47;7.57;;;3.05;;
55216;SDS011;41086;46.736;15.666;2024-03-23T12:38:13;4.53;;;2.80;;
55216;SDS011;41086;46.736;15.666;2024-03-23T12:40:39;6.50;;;2.92;;
55216;SDS011;41086;46.736;15.666;2024-03-23T12:45:33;3.63;;;2.45;;
55216;SDS011;41086;46.736;15.666;2024-03-23T12:47:59;3.55;;;2.55;;
55216;SDS011;41086;46.736;15.666;2024-03-23T12:50:25;2.87;;;2.30;;
55216;SDS011;41086;46.736;15.666;2024-03-23T12:52:50;4.97;;;2.97;;
55216;SDS011;41086;46.736;15.666;2024-03-23T12:55:16;4.13;;;2.47;;
55216;SDS011;41086;46.736;15.666;2024-03-23T12:57:42;4.13;;;2.38;;
55216;SDS011;41086;46.736;15.666;2024-03-23T13:00:08;9.80;;;2.33;;
55216;SDS011;41086;46.736;15.666;2024-03-23T13:02:38;4.70;;;2.40;;
55216;SDS011;41086;46.736;15.666;2024-03-23T13:05:04;6.90;;;3.17;;
55216;SDS011;41086;46.736;15.666;2024-03-23T13:07:31;3.72;;;2.40;;
55216;SDS011;41086;46.736;15.666;2024-03-23T13:09:56;4.40;;;2.57;;
55216;SDS011;41086;46.736;15.666;2024-03-23T13:12:22;4.57;;;2.87;;
55216;SDS011;41086;46.736;15.666;2024-03-23T13:14:48;6.05;;;2.88;;
55216;SDS011;41086;46.736;15.666;2024-03-23T13:17:14;6.37;;;2.83;;
55216;SDS011;41086;46.736;15.666;2024-03-23T13:19:40;4.37;;;2.40;;
55216;SDS011;41086;46.736;15.666;2024-03-23T13:22:06;5.43;;;2.40;;
55216;SDS011;41086;46.736;15.666;2024-03-23T13:24:32;6.18;;;3.05;;
55216;SDS011;41086;46.736;15.666;2024-03-23T13:26:58;5.47;;;2.70;;
55216;SDS011;41086;46.736;15.666;2024-03-23T13:29:24;10.53;;;3.17;;
55216;SDS011;41086;46.736;15.666;2024-03-23T13:31:50;5.13;;;2.90;;
55216;SDS011;41086;46.736;15.666;2024-03-23T13:34:17;10.50;;;3.28;;
55216;SDS011;41086;46.736;15.666;2024-03-23T13:36:44;4.10;;;2.05;;
55216;SDS011;41086;46.736;15.666;2024-03-23T13:39:10;8.38;;;2.55;;
55216;SDS011;41086;46.736;15.666;2024-03-23T13:41:43;4.75;;;2.80;;
55216;SDS011;41086;46.736;15.666;2024-03-23T13:44:11;6.68;;;2.95;;
55216;SDS011;41086;46.736;15.666;2024-03-23T13:46:38;5.40;;;3.03;;
55216;SDS011;41086;46.736;15.666;2024-03-23T13:49:05;4.82;;;2.90;;
55216;SDS011;41086;46.736;15.666;2024-03-23T13:51:32;5.20;;;3.35;;
55216;SDS011;41086;46.736;15.666;2024-03-23T13:53:58;7.07;;;3.53;;
55216;SDS011;41086;46.736;15.666;2024-03-23T13:56:29;6.30;;;3.10;;
55216;SDS011;41086;46.736;15.666;2024-03-23T13:58:55;4.13;;;1.88;;
55216;SDS011;41086;46.736;15.666;2024-03-23T14:01:22;5.97;;;2.80;;
55216;SDS011;41086;46.736;15.666;2024-03-23T14:03:48;4.93;;;2.55;;
55216;SDS011;41086;46.736;15.666;2024-03-23T14:06:14;6.77;;;2.97;;
55216;SDS011;41086;46.736;15.666;2024-03-23T14:08:40;4.03;;;3.00;;
55216;SDS011;41086;46.736;15.666;2024-03-23T14:11:07;5.90;;;2.72;;
55216;SDS011;41086;46.736;15.666;2024-03-23T14:13:34;4.32;;;2.55;;
55216;SDS011;41086;46.736;15.666;2024-03-23T14:16:01;4.10;;;2.92;;
55216;SDS011;41086;46.736;15.666;2024-03-23T14:18:27;6.95;;;3.10;;
55216;SDS011;41086;46.736;15.666;2024-03-23T14:20:56;4.63;;;2.85;;
55216;SDS011;41086;46.736;15.666;2024-03-23T14:23:24;6.43;;;3.17;;
55216;SDS011;41086;46.736;15.666;2024-03-23T14:26:00;8.05;;;3.03;;
55216;SDS011;41086;46.736;15.666;2024-03-23T14:28:26;5.63;;;2.80;;
55216;SDS011;41086;46.736;15.666;2024-03-23T14:30:52;5.45;;;2.88;;
55216;SDS011;41086;46.736;15.666;2024-03-23T14:33:21;4.60;;;2.55;;
55216;SDS011;41086;46.736;15.666;2024-03-23T14:35:53;4.78;;;2.45;;
55216;SDS011;41086;46.736;15.666;2024-03-23T14:38:21;5.03;;;2.90;;
55216;SDS011;41086;46.736;15.666;2024-03-23T14:40:46;5.47;;;3.00;;
55216;SDS011;41086;46.736;15.666;2024-03-23T14:43:12;5.20;;;2.67;;
55216;SDS011;41086;46.736;15.666;2024-03-23T14:48:38;3.53;;;2.63;;
55216;SDS011;41086;46.736;15.666;2024-03-23T14:51:04;3.40;;;2.25;;
55216;SDS011;41086;46.736;15.666;2024-03-23T14:53:37;4.93;;;2.90;;
55216;SDS011;41086;46.736;15.666;2024-03-23T14:56:05;3.20;;;2.13;;
55216;SDS011;41086;46.736;15.666;2024-03-23T14:58:32;5.28;;;2.38;;
55216;SDS011;41086;46.736;15.666;2024-03-23T15:01:03;5.68;;;2.40;;
55216;SDS011;41086;46.736;15.666;2024-03-23T15:03:30;3.20;;;1.58;;
55216;SDS011;41086;46.736;15.666;2024-03-23T15:05:58;4.90;;;2.15;;
55216;SDS011;41086;46.736;15.666;2024-03-23T15:08:28;5.03;;;1.88;;
55216;SDS011;41086;46.736;15.666;2024-03-23T15:10:54;3.00;;;1.80;;
55216;SDS011;41086;46.736;15.666;2024-03-23T15:13:20;3.07;;;1.87;;
55216;SDS011;41086;46.736;15.666;2024-03-23T15:15:48;3.38;;;1.88;;
55216;SDS011;41086;46.736;15.666;2024-03-23T15:18:14;4.68;;;2.00;;
55216;SDS011;41086;46.736;15.666;2024-03-23T15:20:41;3.00;;;2.15;;
55216;SDS011;41086;46.736;15.666;2024-03-23T15:25:33;5.95;;;2.20;;
55216;SDS011;41086;46.736;15.666;2024-03-23T15:27:59;3.00;;;2.10;;
55216;SDS011;41086;46.736;15.666;2024-03-23T15:30:26;3.53;;;2.17;;
55216;SDS011;41086;46.736;15.666;2024-03-23T15:32:52;3.30;;;2.17;;
55216;SDS011;41086;46.736;15.666;2024-03-23T15:35:18;3.07;;;2.47;;
55216;SDS011;41086;46.736;15.666;2024-03-23T15:37:49;4.47;;;1.90;;
55216;SDS011;41086;46.736;15.666;2024-03-23T15:40:15;2.88;;;1.88;;
55216;SDS011;41086;46.736;15.666;2024-03-23T15:42:41;4.47;;;1.77;;
55216;SDS011;41086;46.736;15.666;2024-03-23T15:45:07;6.28;;;2.30;;
55216;SDS011;41086;46.736;15.666;2024-03-23T15:47:35;4.03;;;1.75;;
55216;SDS011;41086;46.736;15.666;2024-03-23T15:52:28;3.10;;;1.92;;